Terminal Aerodrome Forecast
Issued by NWS Denver/Boulder, CO

Home | Current Version | Previous Version | Text Only | Print | Product List | Glossary On
Versions: 1 2 3 4 5 6 7 8 9 10 11 12 13 14 15 16 17 18 19 20 21 22 23 24 25 26 27 28 29 30 31 32 33 34 35 36 37 38 39 40 41 42 43 44 45 46 47 48 49 50
000
FTUS45 KBOU 100540
TAFDEN
TAF
KDEN 100540Z 1006/1112 VRB05KT 6SM HZ OVC090
     FM100800 15006KT P6SM BKN090 BKN200
     FM100900 21008KT P6SM SCT100 BKN200
     FM102000 14007KT P6SM FEW140 SCT220
     FM110000 17007KT P6SM SCT120 BKN180
     FM110400 24010KT P6SM SCT100 BKN150=

USA.gov is the U.S. government's official web portal to all federal, state and local government web resources and services.